sensor_id;sensor_type;location;lat;lon;timestamp;temperature;humidity
65040;HTU21D;51606;45.000;38.612;2022-11-12T04:27:31;4.24;87.73
65040;HTU21D;51606;45.000;38.612;2022-11-12T04:30:17;4.24;87.78
65040;HTU21D;51606;45.000;38.612;2022-11-12T04:33:04;4.29;87.75
65040;HTU21D;51606;45.000;38.612;2022-11-12T04:35:48;4.31;87.64
65040;HTU21D;51606;45.000;38.612;2022-11-12T04:38:33;4.31;87.62
65040;HTU21D;51606;45.000;38.612;2022-11-12T04:41:18;4.32;87.62
65040;HTU21D;51606;45.000;38.612;2022-11-12T04:44:21;4.36;87.59
65040;HTU21D;51606;45.000;38.612;2022-11-12T04:47:26;4.37;87.54
65040;HTU21D;51606;45.000;38.612;2022-11-12T04:50:17;4.38;87.54
65040;HTU21D;51606;45.000;38.612;2022-11-12T04:53:02;4.39;87.56
65040;HTU21D;51606;45.000;38.612;2022-11-12T04:55:51;4.44;87.56
65040;HTU21D;51606;45.000;38.612;2022-11-12T04:58:36;4.48;87.45
65040;HTU21D;51606;45.000;38.612;2022-11-12T05:01:21;4.51;87.40
65040;HTU21D;51606;45.000;38.612;2022-11-12T05:04:06;4.52;87.44
65040;HTU21D;51606;45.000;38.612;2022-11-12T05:06:51;4.54;87.46
65040;HTU21D;51606;45.000;38.612;2022-11-12T05:09:39;4.60;87.39
65040;HTU21D;51606;45.000;38.612;2022-11-12T05:12:23;4.63;87.32
65040;HTU21D;51606;45.000;38.612;2022-11-12T05:15:10;4.66;87.35
65040;HTU21D;51606;45.000;38.612;2022-11-12T05:17:57;4.69;87.28
65040;HTU21D;51606;45.000;38.612;2022-11-12T05:20:42;4.75;87.28
65040;HTU21D;51606;45.000;38.612;2022-11-12T05:23:27;4.79;87.25
65040;HTU21D;51606;45.000;38.612;2022-11-12T05:26:12;4.84;87.18
65040;HTU21D;51606;45.000;38.612;2022-11-12T05:28:57;4.86;87.08
65040;HTU21D;51606;45.000;38.612;2022-11-12T05:31:42;4.87;87.10
65040;HTU21D;51606;45.000;38.612;2022-11-12T05:34:27;4.90;87.15
65040;HTU21D;51606;45.000;38.612;2022-11-12T05:37:14;4.90;87.12
65040;HTU21D;51606;45.000;38.612;2022-11-12T05:39:59;4.94;87.18
65040;HTU21D;51606;45.000;38.612;2022-11-12T05:42:44;4.98;87.16
65040;HTU21D;51606;45.000;38.612;2022-11-12T05:45:29;5.03;87.15
65040;HTU21D;51606;45.000;38.612;2022-11-12T05:48:14;5.07;87.10
65040;HTU21D;51606;45.000;38.612;2022-11-12T05:50:58;5.08;87.11
65040;HTU21D;51606;45.000;38.612;2022-11-12T05:53:44;5.08;87.14
65040;HTU21D;51606;45.000;38.612;2022-11-12T05:56:29;5.11;87.23
65040;HTU21D;51606;45.000;38.612;2022-11-12T05:59:14;5.16;87.19
65040;HTU21D;51606;45.000;38.612;2022-11-12T06:01:59;5.19;87.22
65040;HTU21D;51606;45.000;38.612;2022-11-12T06:04:44;5.23;87.17
65040;HTU21D;51606;45.000;38.612;2022-11-12T06:07:29;5.26;87.15
65040;HTU21D;51606;45.000;38.612;2022-11-12T06:10:14;5.33;87.12
65040;HTU21D;51606;45.000;38.612;2022-11-12T06:12:58;5.35;86.98
65040;HTU21D;51606;45.000;38.612;2022-11-12T06:15:43;5.37;86.96
65040;HTU21D;51606;45.000;38.612;2022-11-12T06:18:28;5.39;87.03
65040;HTU21D;51606;45.000;38.612;2022-11-12T06:21:13;5.43;87.06
65040;HTU21D;51606;45.000;38.612;2022-11-12T06:24:06;5.50;87.03
65040;HTU21D;51606;45.000;38.612;2022-11-12T06:26:51;5.54;87.04
65040;HTU21D;51606;45.000;38.612;2022-11-12T06:29:35;5.59;86.94
65040;HTU21D;51606;45.000;38.612;2022-11-12T06:32:25;5.62;86.78
65040;HTU21D;51606;45.000;38.612;2022-11-12T06:35:10;5.62;86.85
65040;HTU21D;51606;45.000;38.612;2022-11-12T06:37:54;5.68;86.90
65040;HTU21D;51606;45.000;38.612;2022-11-12T06:40:40;5.72;86.88
65040;HTU21D;51606;45.000;38.612;2022-11-12T06:43:27;5.76;86.95
65040;HTU21D;51606;45.000;38.612;2022-11-12T06:46:14;5.80;86.99
65040;HTU21D;51606;45.000;38.612;2022-11-12T06:49:00;5.83;86.98
65040;HTU21D;51606;45.000;38.612;2022-11-12T06:51:45;5.90;86.99
65040;HTU21D;51606;45.000;38.612;2022-11-12T06:54:30;5.96;86.94
65040;HTU21D;51606;45.000;38.612;2022-11-12T06:57:15;6.04;86.91
65040;HTU21D;51606;45.000;38.612;2022-11-12T07:00:00;6.12;86.83
65040;HTU21D;51606;45.000;38.612;2022-11-12T07:02:45;6.19;86.77
65040;HTU21D;51606;45.000;38.612;2022-11-12T07:05:29;6.25;86.77
65040;HTU21D;51606;45.000;38.612;2022-11-12T07:08:14;6.33;86.74
65040;HTU21D;51606;45.000;38.612;2022-11-12T07:10:59;6.41;86.69
65040;HTU21D;51606;45.000;38.612;2022-11-12T07:13:45;6.52;86.62
65040;HTU21D;51606;45.000;38.612;2022-11-12T07:16:31;6.58;86.53
65040;HTU21D;51606;45.000;38.612;2022-11-12T07:19:16;6.65;86.56
65040;HTU21D;51606;45.000;38.612;2022-11-12T07:22:01;6.73;86.56
65040;HTU21D;51606;45.000;38.612;2022-11-12T07:24:46;6.85;86.45
65040;HTU21D;51606;45.000;38.612;2022-11-12T07:27:31;6.94;86.37
65040;HTU21D;51606;45.000;38.612;2022-11-12T07:30:16;6.98;86.38
65040;HTU21D;51606;45.000;38.612;2022-11-12T07:33:01;7.03;86.42
65040;HTU21D;51606;45.000;38.612;2022-11-12T07:35:46;7.07;86.42
65040;HTU21D;51606;45.000;38.612;2022-11-12T07:38:34;7.09;86.58
65040;HTU21D;51606;45.000;38.612;2022-11-12T07:41:21;7.14;86.57
65040;HTU21D;51606;45.000;38.612;2022-11-12T07:44:07;7.18;86.51
65040;HTU21D;51606;45.000;38.612;2022-11-12T07:46:51;7.25;86.60
65040;HTU21D;51606;45.000;38.612;2022-11-12T07:49:37;7.30;86.55
65040;HTU21D;51606;45.000;38.612;2022-11-12T07:52:22;7.35;86.56
65040;HTU21D;51606;45.000;38.612;2022-11-12T07:55:07;7.44;86.58
65040;HTU21D;51606;45.000;38.612;2022-11-12T07:57:52;7.47;86.50
65040;HTU21D;51606;45.000;38.612;2022-11-12T08:00:37;7.49;86.58
65040;HTU21D;51606;45.000;38.612;2022-11-12T08:03:22;7.56;86.59
65040;HTU21D;51606;45.000;38.612;2022-11-12T08:06:07;7.62;86.54
65040;HTU21D;51606;45.000;38.612;2022-11-12T08:08:55;7.69;86.51
65040;HTU21D;51606;45.000;38.612;2022-11-12T08:11:41;7.70;86.57
65040;HTU21D;51606;45.000;38.612;2022-11-12T08:14:25;7.74;86.60
65040;HTU21D;51606;45.000;38.612;2022-11-12T08:17:10;7.76;86.63
65040;HTU21D;51606;45.000;38.612;2022-11-12T08:19:55;7.82;86.64
65040;HTU21D;51606;45.000;38.612;2022-11-12T08:22:40;7.85;86.55
65040;HTU21D;51606;45.000;38.612;2022-11-12T08:25:26;7.91;86.50
65040;HTU21D;51606;45.000;38.612;2022-11-12T08:28:11;7.96;86.54
65040;HTU21D;51606;45.000;38.612;2022-11-12T08:30:56;8.01;86.48
65040;HTU21D;51606;45.000;38.612;2022-11-12T08:33:42;8.12;86.40
65040;HTU21D;51606;45.000;38.612;2022-11-12T08:36:27;8.22;86.33
65040;HTU21D;51606;45.000;38.612;2022-11-12T08:39:12;8.27;86.22
65040;HTU21D;51606;45.000;38.612;2022-11-12T08:41:58;8.30;86.32
65040;HTU21D;51606;45.000;38.612;2022-11-12T08:44:42;8.33;86.30
65040;HTU21D;51606;45.000;38.612;2022-11-12T08:47:27;8.30;86.45
65040;HTU21D;51606;45.000;38.612;2022-11-12T08:50:12;8.33;86.55
65040;HTU21D;51606;45.000;38.612;2022-11-12T08:53:15;8.37;86.51
65040;HTU21D;51606;45.000;38.612;2022-11-12T08:56:01;8.39;86.59
65040;HTU21D;51606;45.000;38.612;2022-11-12T08:58:45;8.48;86.54
65040;HTU21D;51606;45.000;38.612;2022-11-12T09:01:30;8.53;86.45
65040;HTU21D;51606;45.000;38.612;2022-11-12T09:04:15;8.62;86.40
65040;HTU21D;51606;45.000;38.612;2022-11-12T09:07:00;8.65;86.38
65040;HTU21D;51606;45.000;38.612;2022-11-12T09:09:45;8.67;86.38
65040;HTU21D;51606;45.000;38.612;2022-11-12T09:12:30;8.71;86.41
65040;HTU21D;51606;45.000;38.612;2022-11-12T09:15:15;8.72;86.36
65040;HTU21D;51606;45.000;38.612;2022-11-12T09:18:02;8.79;86.30
65040;HTU21D;51606;45.000;38.612;2022-11-12T09:20:47;8.83;86.32
65040;HTU21D;51606;45.000;38.612;2022-11-12T09:23:34;8.88;86.33
65040;HTU21D;51606;45.000;38.612;2022-11-12T09:26:19;8.91;86.35
65040;HTU21D;51606;45.000;38.612;2022-11-12T09:29:04;8.95;86.35
65040;HTU21D;51606;45.000;38.612;2022-11-12T09:31:49;8.90;86.39
65040;HTU21D;51606;45.000;38.612;2022-11-12T09:34:34;8.85;86.58
65040;HTU21D;51606;45.000;38.612;2022-11-12T09:37:19;8.81;86.76
65040;HTU21D;51606;45.000;38.612;2022-11-12T09:40:06;8.85;86.70
65040;HTU21D;51606;45.000;38.612;2022-11-12T09:42:52;8.88;86.77
65040;HTU21D;51606;45.000;38.612;2022-11-12T09:45:37;8.93;86.62
65040;HTU21D;51606;45.000;38.612;2022-11-12T09:48:28;8.95;86.53
65040;HTU21D;51606;45.000;38.612;2022-11-12T09:51:17;8.89;86.61
65040;HTU21D;51606;45.000;38.612;2022-11-12T09:57:02;8.85;86.73
65040;HTU21D;51606;45.000;38.612;2022-11-12T09:59:47;8.83;86.74
65040;HTU21D;51606;45.000;38.612;2022-11-12T10:02:41;8.82;86.72
65040;HTU21D;51606;45.000;38.612;2022-11-12T10:05:37;8.79;86.75
65040;HTU21D;51606;45.000;38.612;2022-11-12T10:08:32;8.75;86.76
65040;HTU21D;51606;45.000;38.612;2022-11-12T10:11:49;8.71;86.82
65040;HTU21D;51606;45.000;38.612;2022-11-12T10:15:26;8.64;86.86
65040;HTU21D;51606;45.000;38.612;2022-11-12T10:19:01;8.63;86.82
65040;HTU21D;51606;45.000;38.612;2022-11-12T10:24:38;8.60;86.80
65040;HTU21D;51606;45.000;38.612;2022-11-12T10:35:36;8.62;86.60
65040;HTU21D;51606;45.000;38.612;2022-11-12T10:38:24;8.64;86.56
65040;HTU21D;51606;45.000;38.612;2022-11-12T10:41:30;8.70;86.39
65040;HTU21D;51606;45.000;38.612;2022-11-12T10:44:24;8.72;86.35
65040;HTU21D;51606;45.000;38.612;2022-11-12T10:47:37;8.76;86.29
65040;HTU21D;51606;45.000;38.612;2022-11-12T10:50:42;8.74;86.21
65040;HTU21D;51606;45.000;38.612;2022-11-12T10:53:36;8.73;86.25
65040;HTU21D;51606;45.000;38.612;2022-11-12T10:56:29;8.73;86.26
65040;HTU21D;51606;45.000;38.612;2022-11-12T10:59:19;8.70;86.28
65040;HTU21D;51606;45.000;38.612;2022-11-12T11:02:17;8.67;86.31
65040;HTU21D;51606;45.000;38.612;2022-11-12T11:05:30;8.65;86.33
65040;HTU21D;51606;45.000;38.612;2022-11-12T11:08:32;8.66;86.29
65040;HTU21D;51606;45.000;38.612;2022-11-12T11:11:28;8.67;86.18
65040;HTU21D;51606;45.000;38.612;2022-11-12T11:14:25;8.65;86.20
65040;HTU21D;51606;45.000;38.612;2022-11-12T11:17:17;8.64;86.22
65040;HTU21D;51606;45.000;38.612;2022-11-12T11:23:22;8.70;86.03
65040;HTU21D;51606;45.000;38.612;2022-11-12T11:26:44;8.68;86.00
65040;HTU21D;51606;45.000;38.612;2022-11-12T11:36:14;8.67;85.94
65040;HTU21D;51606;45.000;38.612;2022-11-12T11:48:09;8.72;85.80
65040;HTU21D;51606;45.000;38.612;2022-11-12T11:51:01;8.74;85.73
65040;HTU21D;51606;45.000;38.612;2022-11-12T11:57:15;8.74;85.68
65040;HTU21D;51606;45.000;38.612;2022-11-12T12:00:03;8.79;85.65
65040;HTU21D;51606;45.000;38.612;2022-11-12T12:03:15;8.85;85.49
65040;HTU21D;51606;45.000;38.612;2022-11-12T12:06:20;8.83;85.49
65040;HTU21D;51606;45.000;38.612;2022-11-12T12:12:50;8.80;85.54
65040;HTU21D;51606;45.000;38.612;2022-11-12T12:22:00;8.90;85.46
65040;HTU21D;51606;45.000;38.612;2022-11-12T12:24:52;8.92;85.45
65040;HTU21D;51606;45.000;38.612;2022-11-12T12:27:53;8.96;85.38
65040;HTU21D;51606;45.000;38.612;2022-11-12T12:30:44;8.96;85.35
65040;HTU21D;51606;45.000;38.612;2022-11-12T12:33:52;8.95;85.37
65040;HTU21D;51606;45.000;38.612;2022-11-12T12:36:40;8.95;85.39
65040;HTU21D;51606;45.000;38.612;2022-11-12T12:45:33;8.90;85.42
65040;HTU21D;51606;45.000;38.612;2022-11-12T12:48:26;8.86;85.50
65040;HTU21D;51606;45.000;38.612;2022-11-12T12:51:13;8.82;85.52
65040;HTU21D;51606;45.000;38.612;2022-11-12T12:53:58;8.76;85.64
65040;HTU21D;51606;45.000;38.612;2022-11-12T12:56:45;8.72;85.67
65040;HTU21D;51606;45.000;38.612;2022-11-12T12:59:31;8.70;85.70
65040;HTU21D;51606;45.000;38.612;2022-11-12T13:02:23;8.68;85.71
65040;HTU21D;51606;45.000;38.612;2022-11-12T13:05:34;8.64;85.71
65040;HTU21D;51606;45.000;38.612;2022-11-12T13:08:23;8.61;85.73
65040;HTU21D;51606;45.000;38.612;2022-11-12T13:11:09;8.57;85.77
65040;HTU21D;51606;45.000;38.612;2022-11-12T13:13:54;8.51;85.82
65040;HTU21D;51606;45.000;38.612;2022-11-12T13:25:29;8.36;85.91
65040;HTU21D;51606;45.000;38.612;2022-11-12T13:28:14;8.34;85.91
65040;HTU21D;51606;45.000;38.612;2022-11-12T13:31:00;8.29;85.93
65040;HTU21D;51606;45.000;38.612;2022-11-12T13:33:46;8.23;85.97
65040;HTU21D;51606;45.000;38.612;2022-11-12T13:36:32;8.21;86.02
65040;HTU21D;51606;45.000;38.612;2022-11-12T13:39:18;8.17;86.05
65040;HTU21D;51606;45.000;38.612;2022-11-12T13:42:16;8.15;86.03
65040;HTU21D;51606;45.000;38.612;2022-11-12T13:45:25;8.09;86.03
65040;HTU21D;51606;45.000;38.612;2022-11-12T13:48:23;8.06;86.02
65040;HTU21D;51606;45.000;38.612;2022-11-12T13:54:31;8.01;85.96
65040;HTU21D;51606;45.000;38.612;2022-11-12T14:00:23;7.94;85.98
65040;HTU21D;51606;45.000;38.612;2022-11-12T14:03:16;7.92;85.98
65040;HTU21D;51606;45.000;38.612;2022-11-12T14:11:57;7.81;86.04
65040;HTU21D;51606;45.000;38.612;2022-11-12T14:15:02;7.77;86.09
65040;HTU21D;51606;45.000;38.612;2022-11-12T14:21:10;7.72;86.11
65040;HTU21D;51606;45.000;38.612;2022-11-12T14:23:56;7.71;86.09
65040;HTU21D;51606;45.000;38.612;2022-11-12T14:26:42;7.70;86.07
65040;HTU21D;51606;45.000;38.612;2022-11-12T14:29:26;7.69;86.03
65040;HTU21D;51606;45.000;38.612;2022-11-12T14:32:11;7.68;86.03
65040;HTU21D;51606;45.000;38.612;2022-11-12T14:34:56;7.65;86.02
65040;HTU21D;51606;45.000;38.612;2022-11-12T14:37:51;7.64;86.03
65040;HTU21D;51606;45.000;38.612;2022-11-12T14:40:52;7.64;86.00
65040;HTU21D;51606;45.000;38.612;2022-11-12T14:43:42;7.62;85.98
65040;HTU21D;51606;45.000;38.612;2022-11-12T14:46:38;7.62;85.97
65040;HTU21D;51606;45.000;38.612;2022-11-12T14:49:37;7.61;85.95
65040;HTU21D;51606;45.000;38.612;2022-11-12T14:52:33;7.60;85.96
65040;HTU21D;51606;45.000;38.612;2022-11-12T14:55:20;7.57;85.88
65040;HTU21D;51606;45.000;38.612;2022-11-12T14:58:10;7.54;85.90
65040;HTU21D;51606;45.000;38.612;2022-11-12T15:00:56;7.50;85.96
65040;HTU21D;51606;45.000;38.612;2022-11-12T15:03:41;7.50;85.99
65040;HTU21D;51606;45.000;38.612;2022-11-12T15:06:31;7.49;86.01
65040;HTU21D;51606;45.000;38.612;2022-11-12T15:09:17;7.47;86.00
65040;HTU21D;51606;45.000;38.612;2022-11-12T15:12:08;7.48;86.00
65040;HTU21D;51606;45.000;38.612;2022-11-12T15:15:22;7.47;86.00
65040;HTU21D;51606;45.000;38.612;2022-11-12T15:18:16;7.46;85.99
65040;HTU21D;51606;45.000;38.612;2022-11-12T15:21:15;7.44;86.00
65040;HTU21D;51606;45.000;38.612;2022-11-12T15:26:56;7.44;86.02
65040;HTU21D;51606;45.000;38.612;2022-11-12T15:29:42;7.43;86.01
65040;HTU21D;51606;45.000;38.612;2022-11-12T15:32:32;7.41;86.02
65040;HTU21D;51606;45.000;38.612;2022-11-12T15:35:32;7.42;86.02
65040;HTU21D;51606;45.000;38.612;2022-11-12T15:38:24;7.41;86.02
65040;HTU21D;51606;45.000;38.612;2022-11-12T15:41:28;7.41;85.98
65040;HTU21D;51606;45.000;38.612;2022-11-12T15:44:13;7.41;85.97
65040;HTU21D;51606;45.000;38.612;2022-11-12T15:46:59;7.41;85.96
65040;HTU21D;51606;45.000;38.612;2022-11-12T15:49:48;7.41;85.96
65040;HTU21D;51606;45.000;38.612;2022-11-12T15:52:33;7.40;85.96
65040;HTU21D;51606;45.000;38.612;2022-11-12T15:55:18;7.39;85.97
65040;HTU21D;51606;45.000;38.612;2022-11-12T15:58:03;7.39;85.95
65040;HTU21D;51606;45.000;38.612;2022-11-12T16:00:49;7.39;85.94
65040;HTU21D;51606;45.000;38.612;2022-11-12T16:03:34;7.38;85.94
65040;HTU21D;51606;45.000;38.612;2022-11-12T16:06:18;7.39;85.95
65040;HTU21D;51606;45.000;38.612;2022-11-12T16:09:03;7.39;85.95
65040;HTU21D;51606;45.000;38.612;2022-11-12T16:11:49;7.38;85.98
65040;HTU21D;51606;45.000;38.612;2022-11-12T16:14:35;7.35;86.00
65040;HTU21D;51606;45.000;38.612;2022-11-12T16:17:20;7.35;86.02
65040;HTU21D;51606;45.000;38.612;2022-11-12T16:20:18;7.34;86.01
65040;HTU21D;51606;45.000;38.612;2022-11-12T16:23:07;7.35;86.01
65040;HTU21D;51606;45.000;38.612;2022-11-12T16:25:52;7.35;86.00
65040;HTU21D;51606;45.000;38.612;2022-11-12T16:28:37;7.35;85.98
65040;HTU21D;51606;45.000;38.612;2022-11-12T16:31:23;7.34;86.00
65040;HTU21D;51606;45.000;38.612;2022-11-12T16:34:08;7.34;85.98
65040;HTU21D;51606;45.000;38.612;2022-11-12T16:48:15;7.33;85.90
65040;HTU21D;51606;45.000;38.612;2022-11-12T16:51:00;7.33;85.91
65040;HTU21D;51606;45.000;38.612;2022-11-12T16:53:45;7.34;85.92
65040;HTU21D;51606;45.000;38.612;2022-11-12T16:56:30;7.34;85.90
65040;HTU21D;51606;45.000;38.612;2022-11-12T16:59:16;7.37;85.90
65040;HTU21D;51606;45.000;38.612;2022-11-12T17:02:01;7.38;85.89
65040;HTU21D;51606;45.000;38.612;2022-11-12T17:04:47;7.38;85.85
65040;HTU21D;51606;45.000;38.612;2022-11-12T17:07:32;7.39;85.87
65040;HTU21D;51606;45.000;38.612;2022-11-12T17:10:16;7.38;85.81
65040;HTU21D;51606;45.000;38.612;2022-11-12T17:13:07;7.35;85.77
